Airfield :
LOGIN :

Register | Disclaimer

   EN    FR    IT 

 










Legend :    VFR   Marginal VFR   IFR   Intensive IFR   Very Intensive IFR
Visi :
Ceiling :
>= 8 km
>= 3000ft
5 to 8 km
1000 to 3000 ft
1500m to 5 km
500 to 1000 ft
800 to 1500m
200 to 500 ft
< 800m
< 200 ft
Symbols :   Thunderstorms  Fog  Heavy snow  Heavy precipitations  Wind > 20 kt
SIGMETs :     Misc.  Thunderstorms  Icing  Turbulence  Mountain Waves  Volcanic Ashes






- Airport Elevation : 427 ft
- IATA code : KBP


UKBB - Boryspil'

CURRENT METAR :
  • 281600Z 17004MPS 0600 R36R/0700N R36L/0700N FZFG VV001 M00/M00 Q1009 R88/290050 NOSIG

EXPIRED METARs :
  • 281530Z 16003MPS 0650 0600E R36R/0700 R36L/1100D FZFG VV001 M00/M01 Q1009 R88/290050 NOSIG
  • 281500Z 16003MPS 0900 0750NW R36R/1100N R36L/0900N FZFG VV001 M00/M00 Q1009 R88/290050 NOSIG
  • 281430Z 18003MPS 150V210 1100 0800NW R36R/1500N R36L/1200D FZFG OVC001 M00/M00 Q1009 R88/290050 NOSIG
  • 281400Z 17003MPS 1500 1400E R36R/1900N R36L/1900D BR OVC001 M00/M00 Q1009 R88/290050 NOSIG
  • 281330Z 17003MPS 1700 1300SW R36R/1900U R36L/1900D BR OVC002 00/M00 Q1009 R88/290050 NOSIG

TAF TAF UKBB
Valid from the 28 at 12:00 until the 29 at 12:00 UTC


281104Z 2812/2912 17004G09MPS 0400 FZFG VV001 TX01/2912Z TNM02/2903Z
TEMPO 2812/2906 1400 BR BKN003
PROB40
TEMPO 2812/2818 -FZDZ OVC002
BECMG 2906/2908 18007G12MPS 6000 NSW OVC005
TEMPO 2909/2912 26008G14MPS 2100 -SHRASN BKN002 BKN012CB



MET'MAP, your aeronautical weather chart ! - Copyright ORBIFLY December 2007 - Disclaimer

ORBIFLY MET'MAP TEAM :

Programming & Development : Alexandra Zaïnal
Concept & original design : Baudouin d'Aumeries
Assistance for programming : Marc-Olivier Méhu
Technical & hardware support : Manuel Goepfert

Contact : metmap@orbifly.com




SOURCES & CREDITS :

   NOAA